createdAt,value
2019-05-07T00:01:12.287Z,6.30
2019-05-07T00:03:42.850Z,6.30
2019-05-07T00:06:13.174Z,6.30
2019-05-07T00:08:44.992Z,6.30
2019-05-07T00:11:15.470Z,6.30
2019-05-07T00:13:45.824Z,6.30
2019-05-07T00:16:16.151Z,6.30
2019-05-07T00:18:46.488Z,6.30
2019-05-07T00:21:16.913Z,6.40
2019-05-07T00:23:47.216Z,6.40
2019-05-07T00:26:17.508Z,6.30
2019-05-07T00:28:47.813Z,6.40
2019-05-07T00:31:18.121Z,6.40
2019-05-07T00:33:48.497Z,6.40
2019-05-07T00:36:25.384Z,6.40
2019-05-07T00:39:02.876Z,6.40
2019-05-07T00:41:39.802Z,6.40
2019-05-07T00:44:10.720Z,6.40
2019-05-07T00:46:42.733Z,6.40
2019-05-07T00:49:13.486Z,6.40
2019-05-07T00:51:43.883Z,6.40
2019-05-07T00:54:14.569Z,6.40
2019-05-07T00:56:45.165Z,6.50
2019-05-07T00:59:15.581Z,6.50
2019-05-07T01:01:45.877Z,6.60
2019-05-07T01:04:16.236Z,6.60
2019-05-07T01:06:46.535Z,6.60
2019-05-07T01:09:16.888Z,6.60
2019-05-07T01:11:47.276Z,6.50
2019-05-07T01:14:17.605Z,6.50
2019-05-07T01:16:48.950Z,6.50
2019-05-07T01:19:19.327Z,6.50
2019-05-07T01:21:49.730Z,6.50
2019-05-07T01:24:20.037Z,6.50
2019-05-07T01:26:50.354Z,6.40
2019-05-07T01:29:22.584Z,6.40
2019-05-07T01:31:58.647Z,6.40
2019-05-07T01:34:37.221Z,6.40
2019-05-07T01:37:07.573Z,6.40
2019-05-07T01:39:38.062Z,6.30
2019-05-07T01:42:08.574Z,6.30
2019-05-07T01:44:39.418Z,6.30
2019-05-07T01:47:09.734Z,6.30
2019-05-07T01:49:42.186Z,6.20
2019-05-07T01:52:13.368Z,6.20
2019-05-07T01:54:47.171Z,6.10
2019-05-07T01:57:15.912Z,6.20
2019-05-07T01:59:46.364Z,6.30
2019-05-07T02:02:23.070Z,6.30
2019-05-07T02:05:22.900Z,6.40
2019-05-07T02:07:57.007Z,6.40
2019-05-07T02:10:38.901Z,6.40
2019-05-07T02:13:09.705Z,6.40
2019-05-07T02:15:56.512Z,6.50
2019-05-07T02:18:14.828Z,6.50
2019-05-07T02:20:45.453Z,6.50
2019-05-07T02:23:15.912Z,6.50
2019-05-07T02:25:47.991Z,6.50
2019-05-07T02:28:18.297Z,6.50
2019-05-07T02:30:48.929Z,6.50
2019-05-07T02:33:19.505Z,6.50
2019-05-07T02:35:53.253Z,6.50
2019-05-07T02:38:38.627Z,6.50
2019-05-07T02:41:14.149Z,6.50
2019-05-07T02:43:46.435Z,6.50
2019-05-07T02:46:43.140Z,6.50
2019-05-07T02:49:32.724Z,6.50
2019-05-07T02:52:13.243Z,6.50
2019-05-07T02:55:06.076Z,6.50
2019-05-07T02:57:36.606Z,6.50
2019-05-07T03:00:07.493Z,6.50
2019-05-07T03:02:38.416Z,6.50
2019-05-07T03:05:08.802Z,6.50
2019-05-07T03:07:39.298Z,6.50
2019-05-07T03:10:09.815Z,6.50
2019-05-07T03:12:42.929Z,6.50
2019-05-07T03:15:13.226Z,6.50
2019-05-07T03:17:43.678Z,6.40
2019-05-07T03:20:17.833Z,6.40
2019-05-07T03:22:48.145Z,6.40
2019-05-07T03:25:29.455Z,6.40
2019-05-07T03:27:59.766Z,6.40
2019-05-07T03:30:38.686Z,6.40
2019-05-07T03:33:17.102Z,6.40
2019-05-07T03:35:56.257Z,6.30
2019-05-07T03:38:25.105Z,6.40
2019-05-07T03:40:55.406Z,6.30
2019-05-07T03:43:27.059Z,6.40
2019-05-07T03:46:05.918Z,6.30
2019-05-07T03:48:37.292Z,6.40
2019-05-07T03:51:07.690Z,6.40
2019-05-07T03:53:38.263Z,6.40
2019-05-07T03:56:08.589Z,6.40
2019-05-07T03:58:39.483Z,6.40
2019-05-07T04:01:13.147Z,6.50
2019-05-07T04:03:44.499Z,6.50
2019-05-07T04:06:13.801Z,6.40
2019-05-07T04:08:44.301Z,6.40
2019-05-07T04:11:14.661Z,6.30
2019-05-07T04:13:44.977Z,6.30
2019-05-07T04:16:15.402Z,6.30
2019-05-07T04:18:45.735Z,6.30
2019-05-07T04:21:16.042Z,6.40
2019-05-07T04:23:46.486Z,6.30
2019-05-07T04:26:42.967Z,6.30
2019-05-07T04:29:16.638Z,6.30
2019-05-07T04:31:47.022Z,6.30
2019-05-07T04:34:24.176Z,6.30
2019-05-07T04:36:54.579Z,6.30
2019-05-07T04:39:24.962Z,6.20
2019-05-07T04:41:55.341Z,6.30
2019-05-07T04:44:25.648Z,6.20
2019-05-07T04:46:55.958Z,6.20
2019-05-07T04:49:26.339Z,6.20
2019-05-07T04:52:11.344Z,6.20
2019-05-07T04:54:39.909Z,6.20
2019-05-07T04:57:25.770Z,6.10
2019-05-07T04:59:57.390Z,6.20
2019-05-07T05:02:45.426Z,6.20
2019-05-07T05:05:16.622Z,6.20
2019-05-07T05:07:46.945Z,6.20
2019-05-07T05:10:17.405Z,6.20
2019-05-07T05:12:47.757Z,6.30
2019-05-07T05:15:18.569Z,6.30
2019-05-07T05:17:51.469Z,6.30
2019-05-07T05:20:24.849Z,6.40
2019-05-07T05:23:17.231Z,6.40
2019-05-07T05:25:47.774Z,6.40
2019-05-07T05:28:18.100Z,6.50
2019-05-07T05:30:53.269Z,6.50
2019-05-07T05:33:23.671Z,6.50
2019-05-07T05:35:54.101Z,6.60
2019-05-07T05:38:24.437Z,6.70
2019-05-07T05:40:54.741Z,6.70
2019-05-07T05:43:39.694Z,6.80
2019-05-07T05:46:12.094Z,6.80
2019-05-07T05:48:42.658Z,6.90
2019-05-07T05:51:43.032Z,6.90
2019-05-07T05:54:35.277Z,6.90
2019-05-07T05:57:24.049Z,7.00
2019-05-07T06:00:16.534Z,7.10
2019-05-07T06:03:22.707Z,7.10
2019-05-07T06:06:12.769Z,7.20
2019-05-07T06:08:59.209Z,7.30
2019-05-07T06:11:48.548Z,7.30
2019-05-07T06:14:28.517Z,7.40
2019-05-07T06:17:09.407Z,7.40
2019-05-07T06:19:44.653Z,7.50
2019-05-07T06:22:29.893Z,7.50
2019-05-07T06:25:09.978Z,7.60
2019-05-07T06:27:42.031Z,7.60
2019-05-07T06:30:12.788Z,7.50
2019-05-07T06:32:43.201Z,7.60
2019-05-07T06:35:13.671Z,7.60
2019-05-07T06:37:45.110Z,7.60
2019-05-07T06:40:37.990Z,7.70
2019-05-07T06:43:33.653Z,7.60
2019-05-07T06:46:04.837Z,7.60
2019-05-07T06:48:42.288Z,7.70
2019-05-07T06:51:07.297Z,7.80
2019-05-07T06:53:37.743Z,7.90
2019-05-07T06:56:08.221Z,8.00
2019-05-07T06:59:03.607Z,8.00
2019-05-07T07:01:48.252Z,8.10
2019-05-07T07:04:38.512Z,8.10
2019-05-07T07:07:43.278Z,8.10
2019-05-07T07:10:32.213Z,8.20
2019-05-07T07:13:03.944Z,8.20
2019-05-07T07:15:34.281Z,8.30
2019-05-07T07:18:04.733Z,8.40
2019-05-07T07:20:35.089Z,8.50
2019-05-07T07:23:05.385Z,8.60
2019-05-07T07:25:35.837Z,8.60
2019-05-07T07:28:06.365Z,8.70
2019-05-07T07:30:47.515Z,8.80
2019-05-07T07:33:18.213Z,8.80
2019-05-07T07:35:48.627Z,8.80
2019-05-07T07:38:35.148Z,8.80
2019-05-07T07:41:13.400Z,8.90
2019-05-07T07:43:43.712Z,8.90
2019-05-07T07:46:16.503Z,8.90
2019-05-07T07:48:46.034Z,8.90
2019-05-07T07:51:16.477Z,8.90
2019-05-07T07:53:46.977Z,9.00
2019-05-07T07:56:49.209Z,9.00
2019-05-07T07:59:29.785Z,9.00
2019-05-07T08:02:25.338Z,9.00
2019-05-07T08:04:55.680Z,9.00
2019-05-07T08:07:26.089Z,9.00
2019-05-07T08:09:56.486Z,9.00
2019-05-07T08:12:26.830Z,8.90
2019-05-07T08:15:13.612Z,8.90
2019-05-07T08:17:29.164Z,8.90
2019-05-07T08:19:59.494Z,8.80
2019-05-07T08:22:29.827Z,8.90
2019-05-07T08:25:01.948Z,8.90
2019-05-07T08:27:32.599Z,8.90
2019-05-07T08:30:04.500Z,9.00
2019-05-07T08:32:58.032Z,9.10
2019-05-07T08:35:47.415Z,9.30
2019-05-07T08:38:17.810Z,9.40
2019-05-07T08:40:48.967Z,9.60
2019-05-07T08:43:21.705Z,9.80
2019-05-07T08:46:09.424Z,9.90
2019-05-07T08:48:43.817Z,10.00
2019-05-07T08:51:14.143Z,10.10
2019-05-07T08:53:44.477Z,10.10
2019-05-07T08:56:14.916Z,10.30
2019-05-07T08:58:45.346Z,10.40
2019-05-07T09:01:17.682Z,10.40
2019-05-07T09:03:47.991Z,10.50
2019-05-07T09:06:33.513Z,10.50
2019-05-07T09:09:12.832Z,10.50
2019-05-07T09:11:42.683Z,10.40
2019-05-07T09:14:13.055Z,10.20
2019-05-07T09:16:43.469Z,10.20
2019-05-07T09:19:13.803Z,10.10
2019-05-07T09:21:44.126Z,10.10
2019-05-07T09:24:14.493Z,10.10
2019-05-07T09:26:54.723Z,10.10
2019-05-07T09:29:35.602Z,10.10
2019-05-07T09:32:23.830Z,10.10
2019-05-07T09:34:54.524Z,10.20
2019-05-07T09:37:27.026Z,10.20
2019-05-07T09:39:59.348Z,10.30
2019-05-07T09:42:29.634Z,10.40
2019-05-07T09:45:01.891Z,10.50
2019-05-07T09:47:32.670Z,10.70
2019-05-07T09:50:07.585Z,10.90
2019-05-07T09:52:35.118Z,11.20
2019-05-07T09:55:14.039Z,11.60
2019-05-07T09:57:37.640Z,11.80
2019-05-07T10:00:12.160Z,12.10
2019-05-07T10:02:42.615Z,12.30
2019-05-07T10:05:13.580Z,12.50
2019-05-07T10:07:44.052Z,12.60
2019-05-07T10:10:14.785Z,12.70
2019-05-07T10:13:19.778Z,12.80
2019-05-07T10:15:52.515Z,12.80
2019-05-07T10:18:22.823Z,12.90
2019-05-07T10:20:53.469Z,12.80
2019-05-07T10:23:24.010Z,12.60
2019-05-07T10:25:54.961Z,12.50
2019-05-07T10:28:25.910Z,12.50
2019-05-07T10:30:56.330Z,12.40
2019-05-07T10:33:26.708Z,12.30
2019-05-07T10:35:57.143Z,12.30
2019-05-07T10:38:27.489Z,12.30
2019-05-07T10:40:58.015Z,12.40
2019-05-07T10:43:28.546Z,12.30
2019-05-07T10:46:23.990Z,12.40
2019-05-07T10:49:16.417Z,12.40
2019-05-07T10:51:46.846Z,12.10
2019-05-07T10:54:17.152Z,12.00
2019-05-07T10:56:47.798Z,12.10
2019-05-07T10:59:18.578Z,12.30
2019-05-07T11:01:54.710Z,12.40
2019-05-07T11:04:39.033Z,12.50
2019-05-07T11:06:56.982Z,12.60
2019-05-07T11:09:27.519Z,12.70
2019-05-07T11:11:57.974Z,12.80
2019-05-07T11:14:28.500Z,12.90
2019-05-07T11:17:11.862Z,13.00
2019-05-07T11:19:43.143Z,13.10
2019-05-07T11:22:14.666Z,13.20
2019-05-07T11:24:45.186Z,13.20
2019-05-07T11:27:16.122Z,13.00
2019-05-07T11:29:46.490Z,13.00
2019-05-07T11:32:16.990Z,13.20
2019-05-07T11:34:49.326Z,13.40
2019-05-07T11:37:19.703Z,13.60
2019-05-07T11:39:52.337Z,13.50
2019-05-07T11:42:44.883Z,13.60
2019-05-07T11:45:18.962Z,13.60
2019-05-07T11:47:49.350Z,13.50
2019-05-07T11:51:03.760Z,13.50
2019-05-07T11:53:29.561Z,13.60
2019-05-07T11:55:59.867Z,13.60
2019-05-07T11:58:32.310Z,13.40
2019-05-07T12:01:40.221Z,13.20
2019-05-07T12:03:59.389Z,13.30
2019-05-07T12:06:32.216Z,13.40
2019-05-07T12:09:04.939Z,13.50
2019-05-07T12:11:35.278Z,13.50
2019-05-07T12:14:06.054Z,13.50
2019-05-07T12:16:36.419Z,13.60
2019-05-07T12:19:06.375Z,13.70
2019-05-07T12:21:36.928Z,13.60
2019-05-07T12:24:08.370Z,13.30
2019-05-07T12:26:41.715Z,13.10
2019-05-07T12:29:12.396Z,13.00
2019-05-07T12:31:55.799Z,12.70
2019-05-07T12:34:33.490Z,12.70
2019-05-07T12:37:04.094Z,12.70
2019-05-07T12:39:34.420Z,12.40
2019-05-07T12:42:05.104Z,12.20
2019-05-07T12:44:35.502Z,12.00
2019-05-07T12:47:06.283Z,12.00
2019-05-07T12:49:36.662Z,12.10
2019-05-07T12:52:31.914Z,12.20
2019-05-07T12:55:06.930Z,12.30
2019-05-07T12:57:37.278Z,12.40
2019-05-07T13:00:26.220Z,12.40
2019-05-07T13:03:21.835Z,12.50
2019-05-07T13:05:52.480Z,12.50
2019-05-07T13:08:23.278Z,12.40
2019-05-07T13:10:53.697Z,12.40
2019-05-07T13:13:24.010Z,12.40
2019-05-07T13:15:54.349Z,12.40
2019-05-07T13:18:24.694Z,12.40
2019-05-07T13:20:55.206Z,12.40
2019-05-07T13:23:25.521Z,12.50
2019-05-07T13:25:55.846Z,12.70
2019-05-07T13:28:26.182Z,12.70
2019-05-07T13:30:56.524Z,12.60
2019-05-07T13:33:28.455Z,12.50
2019-05-07T13:35:59.119Z,12.50
2019-05-07T13:38:52.063Z,12.70
2019-05-07T13:41:58.477Z,13.00
2019-05-07T13:44:47.957Z,13.10
2019-05-07T13:47:30.503Z,13.10
2019-05-07T13:50:04.066Z,13.30
2019-05-07T13:52:36.751Z,13.30
2019-05-07T13:55:07.652Z,13.30
2019-05-07T13:57:41.690Z,13.40
2019-05-07T14:00:21.858Z,13.40
2019-05-07T14:02:52.083Z,13.10
2019-05-07T14:05:23.822Z,13.00
2019-05-07T14:07:54.362Z,13.00
2019-05-07T14:10:24.726Z,13.20
2019-05-07T14:13:07.576Z,13.40
2019-05-07T14:15:27.486Z,13.40
2019-05-07T14:17:57.839Z,13.70
2019-05-07T14:20:28.240Z,13.80
2019-05-07T14:22:58.579Z,13.60
2019-05-07T14:25:28.994Z,13.40
2019-05-07T14:27:59.306Z,13.40
2019-05-07T14:30:32.310Z,13.50
2019-05-07T14:33:17.752Z,13.60
2019-05-07T14:36:16.831Z,13.70
2019-05-07T14:38:49.038Z,13.80
2019-05-07T14:41:19.334Z,13.90
2019-05-07T14:43:55.459Z,13.90
2019-05-07T14:46:25.858Z,13.90
2019-05-07T14:48:56.170Z,14.00
2019-05-07T14:51:26.623Z,14.10
2019-05-07T14:53:56.924Z,14.10
2019-05-07T14:56:27.579Z,14.10
2019-05-07T14:58:57.991Z,14.00
2019-05-07T15:01:28.287Z,14.00
2019-05-07T15:03:59.022Z,13.90
2019-05-07T15:06:29.353Z,13.70
2019-05-07T15:08:59.842Z,13.70
2019-05-07T15:11:31.772Z,13.70
2019-05-07T15:14:02.632Z,13.80
2019-05-07T15:16:33.135Z,13.90
2019-05-07T15:19:03.451Z,13.90
2019-05-07T15:21:33.786Z,14.00
2019-05-07T15:24:04.197Z,13.90
2019-05-07T15:26:35.315Z,13.90
2019-05-07T15:29:09.421Z,13.90
2019-05-07T15:31:56.521Z,13.90
2019-05-07T15:34:26.880Z,13.90
2019-05-07T15:36:57.229Z,13.90
2019-05-07T15:39:27.568Z,13.90
2019-05-07T15:41:57.883Z,13.90
2019-05-07T15:44:28.204Z,13.80
2019-05-07T15:47:02.448Z,13.70
2019-05-07T15:49:32.350Z,13.60
2019-05-07T15:52:05.258Z,13.60
2019-05-07T15:54:35.654Z,13.60
2019-05-07T15:57:08.164Z,13.40
2019-05-07T15:59:38.982Z,13.30
2019-05-07T16:02:33.490Z,13.30
2019-05-07T16:05:04.940Z,13.20
2019-05-07T16:07:36.048Z,13.10
2019-05-07T16:10:06.389Z,13.10
2019-05-07T16:12:36.813Z,13.00
2019-05-07T16:15:07.622Z,12.80
2019-05-07T16:17:42.897Z,12.80
2019-05-07T16:20:14.894Z,12.70
2019-05-07T16:22:48.762Z,12.70
2019-05-07T16:25:19.120Z,12.60
2019-05-07T16:27:49.413Z,12.60
2019-05-07T16:30:22.851Z,12.60
2019-05-07T16:32:55.322Z,12.60
2019-05-07T16:35:25.221Z,12.60
2019-05-07T16:37:55.714Z,12.70
2019-05-07T16:40:26.177Z,12.80
2019-05-07T16:42:56.519Z,12.80
2019-05-07T16:45:26.990Z,12.90
2019-05-07T16:48:00.376Z,12.90
2019-05-07T16:50:29.253Z,12.90
2019-05-07T16:53:00.265Z,12.90
2019-05-07T16:55:39.794Z,12.90
2019-05-07T16:58:20.671Z,12.80
2019-05-07T17:00:55.104Z,12.80
2019-05-07T17:03:31.944Z,12.80
2019-05-07T17:06:02.572Z,12.80
2019-05-07T17:08:58.213Z,12.70
2019-05-07T17:11:31.861Z,12.70
2019-05-07T17:14:02.631Z,12.70
2019-05-07T17:16:35.289Z,12.60
2019-05-07T17:19:05.776Z,12.60
2019-05-07T17:21:36.273Z,12.70
2019-05-07T17:24:06.619Z,12.70
2019-05-07T17:26:37.059Z,12.70
2019-05-07T17:29:07.346Z,12.70
2019-05-07T17:31:37.793Z,12.70
2019-05-07T17:34:08.060Z,12.70
2019-05-07T17:36:38.867Z,12.70
2019-05-07T17:39:13.034Z,12.60
2019-05-07T17:41:44.026Z,12.60
2019-05-07T17:44:14.668Z,12.50
2019-05-07T17:46:46.254Z,12.50
2019-05-07T17:49:16.725Z,12.40
2019-05-07T17:51:47.223Z,12.30
2019-05-07T17:54:17.516Z,12.30
2019-05-07T17:56:47.859Z,12.30
2019-05-07T17:59:18.197Z,12.20
2019-05-07T18:02:15.086Z,12.20
2019-05-07T18:04:51.491Z,12.10
2019-05-07T18:07:20.130Z,12.00
2019-05-07T18:09:50.536Z,12.00
2019-05-07T18:12:22.597Z,11.90
2019-05-07T18:14:53.033Z,11.90
2019-05-07T18:17:42.022Z,11.80
2019-05-07T18:20:12.954Z,11.70
2019-05-07T18:22:43.533Z,11.70
2019-05-07T18:25:13.933Z,11.60
2019-05-07T18:27:44.327Z,11.50
2019-05-07T18:30:14.936Z,11.50
2019-05-07T18:32:51.875Z,11.40
2019-05-07T18:35:23.092Z,11.30
2019-05-07T18:37:55.736Z,11.30
2019-05-07T18:40:25.742Z,11.20
2019-05-07T18:42:56.401Z,11.20
2019-05-07T18:45:27.118Z,11.20
2019-05-07T18:47:57.473Z,11.10
2019-05-07T18:50:28.614Z,11.10
2019-05-07T18:52:59.092Z,11.00
2019-05-07T18:55:29.404Z,11.00
2019-05-07T18:57:59.809Z,11.00
2019-05-07T19:00:33.623Z,10.90
2019-05-07T19:03:04.120Z,10.80
2019-05-07T19:05:34.525Z,10.80
2019-05-07T19:08:08.392Z,10.80
2019-05-07T19:10:37.289Z,10.70
2019-05-07T19:13:07.761Z,10.60
2019-05-07T19:15:38.783Z,10.60
2019-05-07T19:18:12.075Z,10.50
2019-05-07T19:20:43.121Z,10.50
2019-05-07T19:23:14.653Z,10.40
2019-05-07T19:25:46.920Z,10.40
2019-05-07T19:28:18.770Z,10.40
2019-05-07T19:30:57.950Z,10.30
2019-05-07T19:33:29.342Z,10.30
2019-05-07T19:36:00.239Z,10.20
2019-05-07T19:38:32.435Z,10.20
2019-05-07T19:41:04.072Z,10.20
2019-05-07T19:43:36.303Z,10.20
2019-05-07T19:46:07.637Z,10.20
2019-05-07T19:48:38.456Z,10.20
2019-05-07T19:51:13.766Z,10.10
2019-05-07T19:53:44.566Z,10.10
2019-05-07T19:56:21.909Z,10.10
2019-05-07T19:58:52.894Z,10.00
2019-05-07T20:01:27.970Z,10.00
2019-05-07T20:03:58.276Z,10.00
2019-05-07T20:06:29.715Z,10.00
2019-05-07T20:09:09.853Z,9.90
2019-05-07T20:11:42.508Z,9.90
2019-05-07T20:14:13.046Z,9.90
2019-05-07T20:16:43.487Z,9.90
2019-05-07T20:19:13.789Z,9.90
2019-05-07T20:21:44.276Z,9.80
2019-05-07T20:24:14.582Z,9.80
2019-05-07T20:26:45.039Z,9.80
2019-05-07T20:29:15.328Z,9.80
2019-05-07T20:31:45.665Z,9.80
2019-05-07T20:34:16.097Z,9.70
2019-05-07T20:36:46.475Z,9.70
2019-05-07T20:39:17.025Z,9.70
2019-05-07T20:41:47.405Z,9.70
2019-05-07T20:44:17.729Z,9.60
2019-05-07T20:46:48.158Z,9.60
2019-05-07T20:49:18.576Z,9.50
2019-05-07T20:51:48.944Z,9.60
2019-05-07T20:54:28.210Z,9.60
2019-05-07T20:57:13.236Z,9.50
2019-05-07T20:59:43.708Z,9.60
2019-05-07T21:02:14.071Z,9.50
2019-05-07T21:04:44.374Z,9.50
2019-05-07T21:07:15.937Z,9.40
2019-05-07T21:09:46.255Z,9.50
2019-05-07T21:12:16.554Z,9.30
2019-05-07T21:14:46.916Z,9.30
2019-05-07T21:17:17.608Z,9.20
2019-05-07T21:19:50.935Z,9.20
2019-05-07T21:22:22.641Z,9.10
2019-05-07T21:24:53.442Z,9.10
2019-05-07T21:27:23.952Z,9.00
2019-05-07T21:30:44.898Z,8.90
2019-05-07T21:33:15.305Z,8.90
2019-05-07T21:35:45.618Z,8.80
2019-05-07T21:38:16.033Z,8.70
2019-05-07T21:40:46.364Z,8.70
2019-05-07T21:43:16.665Z,8.70
2019-05-07T21:45:47.081Z,8.60
2019-05-07T21:48:17.346Z,8.60
2019-05-07T21:50:47.665Z,8.50
2019-05-07T21:53:29.571Z,8.50
2019-05-07T21:56:22.792Z,8.50
2019-05-07T21:58:56.602Z,8.50
2019-05-07T22:01:32.791Z,8.40
2019-05-07T22:04:03.126Z,8.40
2019-05-07T22:06:33.510Z,8.40
2019-05-07T22:09:05.225Z,8.30
2019-05-07T22:11:35.639Z,8.30
2019-05-07T22:14:05.954Z,8.30
2019-05-07T22:16:36.501Z,8.30
2019-05-07T22:19:07.356Z,8.20
2019-05-07T22:21:37.834Z,8.20
2019-05-07T22:24:08.166Z,8.20
2019-05-07T22:26:38.913Z,8.10
2019-05-07T22:29:09.298Z,8.00
2019-05-07T22:32:02.608Z,7.90
2019-05-07T22:34:42.146Z,7.90
2019-05-07T22:37:12.693Z,7.70
2019-05-07T22:39:43.069Z,7.80
2019-05-07T22:42:13.460Z,7.80
2019-05-07T22:44:43.770Z,7.70
2019-05-07T22:47:22.601Z,7.70
2019-05-07T22:49:53.736Z,7.70
2019-05-07T22:52:24.128Z,7.60
2019-05-07T22:54:54.432Z,7.60
2019-05-07T22:57:32.630Z,7.60
2019-05-07T23:00:04.634Z,7.60
2019-05-07T23:02:35.229Z,7.60
2019-05-07T23:05:05.779Z,7.60
2019-05-07T23:07:36.077Z,7.60
2019-05-07T23:10:06.728Z,7.60
2019-05-07T23:12:37.171Z,7.60
2019-05-07T23:15:07.609Z,7.70
2019-05-07T23:17:38.453Z,7.70
2019-05-07T23:20:08.756Z,7.70
2019-05-07T23:22:39.581Z,7.70
2019-05-07T23:25:09.973Z,7.70
2019-05-07T23:27:41.964Z,7.70
2019-05-07T23:30:13.121Z,7.60
2019-05-07T23:32:43.449Z,7.60
2019-05-07T23:35:13.850Z,7.50
2019-05-07T23:37:44.295Z,7.60
2019-05-07T23:40:37.018Z,7.60
2019-05-07T23:43:08.609Z,7.50
2019-05-07T23:45:38.984Z,7.50
2019-05-07T23:48:09.302Z,7.50
2019-05-07T23:50:41.813Z,7.50
2019-05-07T23:53:12.913Z,7.40
2019-05-07T23:55:43.366Z,7.40
2019-05-07T23:58:14.153Z,7.30
